Krasnaya Polyana, Russia
Current Conditions -  °F | °C
As of 4:30 AM on Saturday 25 Oct 2014 (Local Time) from URMT Reporting Station
Snow Showers Snow Showers  
Wind Chill: 17°   Ceiling: 1600
Heat Index: 25°   Visibility: 0.93mi
Dew Point: 25°   Wind: 7mph
Humidity: 100%   Direction: 80°E
Pressure: 30.18"   Gusts: NA
Location:  44.98°N, 41.12°E
Report Text: URMT 250130Z 08003MPS 1500 SHSN BR SCT004 BKN016CB OVC100M04/M04 Q1022 NOSIG RMK QBB140 QFE726 SC055
Loading
Personal Weather Stations






























Interactive Weather Map
Tropical Storm Tracking
New forecast layout! Learn more

10-Day Weather Forecast

Advertisements
Track Severe Weather on mobile